AirNav   Phillips 66 Aviation Fuel
 
 1585 users online  

03OH Gibbs Field Airport
Fremont, Ohio, USA

GOING TO FREMONT?


FAA INFORMATION EFFECTIVE 23 MAY 2019

Location

FAA Identifier: 03OH
Lat/Long: 41-25-06.1870N / 083-01-02.6980W
41-25.103117N / 083-01.044967W
41.4183853 / -83.0174161
(estimated)
Elevation: 580 ft. / 177 m (estimated)
Variation: 05W (1985)
From city: 3 miles NE of FREMONT, OH
Time zone: UTC -4 (UTC -5 during Standard Time)
Zip code: 43420

Airport Operations

Airport use: Private use. Permission required prior to landing
Activation date: 02/1969
Control tower: no
ARTCC: CLEVELAND CENTER
FSS: CLEVELAND FLIGHT SERVICE STATION
Attendance: APR-DEC IREG IREG
Wind indicator: yes
Segmented circle: no

Airport Communications

WX AWOS-3 at S24 (7 nm S): 119.575 (419-547-6932)
WX AWOS-3 at PCW (9 nm NE): 118.775 (419-734-9955)

Nearby radio navigation aids

VOR radial/distance  VOR name  Freq  Var
VWVr096/28.0WATERVILLE VOR/DME113.1002W
MFDr333/38.2MANSFIELD VORTAC108.8003W
DJBr280/38.7DRYER VOR/DME113.6005W

 
NDB name  Hdg/Dist  Freq  Var  ID
PORT CLINTON235/9.042307WPCW .--. -.-. .--
TIFFIN030/21.426905WTII - .. ..

Airport Services

Airframe service: NONE
Powerplant service: NONE

Runway Information

Runway NE/SW

Dimensions: 2200 x 60 ft. / 671 x 18 m
Surface: turf
RUNWAY NE  RUNWAY SW
Traffic pattern: leftleft
Obstructions: noneplines

Runway N/S

Dimensions: 2100 x 60 ft. / 640 x 18 m
Surface: turf
RUNWAY N  RUNWAY S
Traffic pattern: leftleft
Obstructions: bldgsplines

Airport Ownership and Management from official FAA records

Ownership: Privately-owned
Owner: LUTHER A. GIBBS
2858 CR 265
FREMONT, OH 43420
Phone 419-332-1724
Manager: LUTHER A. GIBBS
2858 CR 265
FREMONT, OH 43420
Phone 419-332-1724

Airport Operational Statistics

Aircraft based on the field: 3
Single engine airplanes: 3
    

Instrument Procedures

There are no published instrument procedures at 03OH.

Some nearby airports with instrument procedures:

S24 - Sandusky County Regional Airport (7 nm S)
14G - Fremont Airport (8 nm SW)
KPCW - Erie-Ottawa International Airport (9 nm NE)
16G - Seneca County Airport (21 nm SW)
KFZI - Fostoria Metropolitan Airport (22 nm SW)
 
Loc | Ops | Rwys | IFR | FBO | Links
Com | Nav | Svcs | Stats | Notes
Area around 03OH (Gibbs Field Airport)
 
Road maps at: MapQuest Bing Google
 
Aerial photo
WARNING: Photo may not be current or correct
Aerial photo of 03OH (Gibbs Field Airport)
Do you have a better or more recent aerial photo of Gibbs Field Airport that you would like to share? If so, please send us your photo.

 
Sectional chart

 
Airport distance calculator
Flying to Gibbs Field Airport? Find the distance to fly.

From to 03OH

Sunrise and sunset
Times for 19-Jun-2019
 Local
(UTC-4)
 Zulu
(UTC)
Morning civil twilight05:2509:25
Sunrise05:5909:59
Sunset21:0801:08
Evening civil twilight21:4201:42

Current date and time
Zulu (UTC)  19-Jun-2019 18:44:29
Local (UTC-4)  19-Jun-2019 14:44:29
 
METAR
KPCW 
9nm NE 
191840Z AUTO 04008KT 9SM CLR 24/16 A2975 RMK AO2
TAF
KTOL 
37nm W 
191741Z 1918/2018 VRB03KT P6SM BKN250 TEMPO 1922/2001 4SM TSRA OVC025CB FM200100 08004KT 4SM -TSRA BR SCT025CB OVC045 FM200700 07007KT 5SM TSRA BR OVC025CB FM200900 05009KT 5SM TSRA BR OVC010CB FM201100 05008KT 3SM SHRA BR OVC008 PROB30 2011/2015 4SM TSRA OVC004CB FM201500 03009KT 2SM SHRA BR OVC003
KFDY 
38nm SW 
191741Z 1918/2018 21004KT P6SM BKN250 TEMPO 1922/2001 4SM TSRA OVC025CB FM200100 09004KT 4SM -TSRA BR SCT025CB OVC040 FM200700 08005KT 5SM TSRA BR OVC025CB FM200900 06006KT 4SM TSRA BR OVC008CB FM201300 03005KT 4SM -TSRA BR OVC008CB
KMFD 
43nm SE 
191741Z 1918/2018 VRB03KT P6SM BKN250 FM200300 VRB03KT 6SM -TSRA OVC045CB FM200700 13004KT 4SM TSRA BR OVC015CB FM201100 17006KT 5SM -TSRA OVC008CB FM201200 20006KT 3SM -TSRA OVC003CB FM201400 23006KT 5SM -SHRA OVC008
NOTAMs
Click for the latest NOTAMs
NOTAMs are issued by the DoD/FAA and will open in a separate window not controlled by AirNav.

 

 
 

Would you like to see your business listed on this page?

 If your business provides an interesting product or service to pilots, flight crews, aircraft, or users of the Gibbs Field Airport, you should consider listing it here.  To start the listing process, click on the button below
 
Add a business
 

Other Pages about Gibbs Field Airport

Update a link
 
Copyright © AirNav, LLC. All rights reserved. Privacy Policy  Contact